createdAt,value
2022-11-16T00:00:02.767Z,44.72
2022-11-16T00:02:53.254Z,46.78
2022-11-16T00:05:26.983Z,44.13
2022-11-16T00:07:55.778Z,44.17
2022-11-16T00:10:23.838Z,42.22
2022-11-16T00:12:51.489Z,47.38
2022-11-16T00:15:19.253Z,44.63
2022-11-16T00:17:46.850Z,43.17
2022-11-16T00:20:15.162Z,46.00
2022-11-16T00:22:42.832Z,44.33
2022-11-16T00:25:10.809Z,42.92
2022-11-16T00:27:38.465Z,45.15
2022-11-16T00:30:06.863Z,43.80
2022-11-16T00:32:34.410Z,41.60
2022-11-16T00:35:02.822Z,44.08
2022-11-16T00:37:30.585Z,45.08
2022-11-16T00:39:58.767Z,46.97
2022-11-16T00:42:26.555Z,45.78
2022-11-16T00:44:54.327Z,43.97
2022-11-16T00:47:22.881Z,42.95
2022-11-16T00:49:50.910Z,47.05
2022-11-16T00:52:18.658Z,39.60
2022-11-16T00:54:46.429Z,40.75
2022-11-16T00:57:14.699Z,41.08
2022-11-16T00:59:42.878Z,41.25
2022-11-16T01:02:10.490Z,43.78
2022-11-16T01:04:41.675Z,41.50
2022-11-16T01:07:09.584Z,41.13
2022-11-16T01:09:37.668Z,41.80
2022-11-16T01:12:12.680Z,43.17
2022-11-16T01:14:43.068Z,40.90
2022-11-16T01:17:11.726Z,38.55
2022-11-16T01:19:39.605Z,39.63
2022-11-16T01:22:07.663Z,40.00
2022-11-16T01:24:36.236Z,41.95
2022-11-16T01:27:03.924Z,37.70
2022-11-16T01:29:35.475Z,40.72
2022-11-16T01:32:03.555Z,40.65
2022-11-16T01:34:32.289Z,41.17
2022-11-16T01:37:06.489Z,39.92
2022-11-16T01:39:38.233Z,40.50
2022-11-16T01:42:07.339Z,37.78
2022-11-16T01:44:35.164Z,42.33
2022-11-16T01:47:13.229Z,39.50
2022-11-16T01:49:43.868Z,38.40
2022-11-16T01:52:13.829Z,38.38
2022-11-16T01:54:43.554Z,41.90
2022-11-16T01:57:14.371Z,40.58
2022-11-16T01:59:52.845Z,38.38
2022-11-16T02:02:23.150Z,38.45
2022-11-16T02:04:51.442Z,35.42
2022-11-16T02:07:25.845Z,38.40
2022-11-16T02:10:12.410Z,38.67
2022-11-16T02:12:59.753Z,38.05
2022-11-16T02:15:52.990Z,40.45
2022-11-16T02:18:46.273Z,37.80
2022-11-16T02:21:20.693Z,41.20
2022-11-16T02:23:50.825Z,39.10
2022-11-16T02:26:35.567Z,35.63
2022-11-16T02:29:20.027Z,36.95
2022-11-16T02:32:02.678Z,35.28
2022-11-16T02:34:36.851Z,36.47
2022-11-16T02:37:05.352Z,34.83
2022-11-16T02:39:32.943Z,36.05
2022-11-16T02:42:01.594Z,36.95
2022-11-16T02:44:38.058Z,36.15
2022-11-16T02:47:07.699Z,38.15
2022-11-16T02:49:37.271Z,35.25
2022-11-16T02:52:05.057Z,36.58
2022-11-16T02:54:32.712Z,35.40
2022-11-16T02:57:04.254Z,36.00
2022-11-16T02:59:36.863Z,36.75
2022-11-16T03:02:18.432Z,36.30
2022-11-16T03:05:17.359Z,36.47
2022-11-16T03:07:55.066Z,33.40
2022-11-16T03:10:37.733Z,32.72
2022-11-16T03:13:08.977Z,36.70
2022-11-16T03:15:37.399Z,35.05
2022-11-16T03:18:06.237Z,32.38
2022-11-16T03:20:34.364Z,33.60
2022-11-16T03:23:06.582Z,36.97
2022-11-16T03:25:43.939Z,31.60
2022-11-16T03:28:27.702Z,35.50
2022-11-16T03:31:01.192Z,34.38
2022-11-16T03:33:32.591Z,35.90
2022-11-16T03:36:07.730Z,33.17
2022-11-16T03:38:36.765Z,36.03
2022-11-16T03:41:08.149Z,32.55
2022-11-16T03:43:36.472Z,32.90
2022-11-16T03:46:04.874Z,32.35
2022-11-16T03:48:36.967Z,33.92
2022-11-16T03:51:09.786Z,32.90
2022-11-16T03:53:38.259Z,31.92
2022-11-16T03:56:06.152Z,32.53
2022-11-16T03:58:34.297Z,32.50
2022-11-16T04:01:03.555Z,32.35
2022-11-16T04:03:31.813Z,31.63
2022-11-16T04:06:14.141Z,34.42
2022-11-16T04:08:55.876Z,31.13
2022-11-16T04:11:37.168Z,33.58
2022-11-16T04:14:18.842Z,30.48
2022-11-16T04:17:00.311Z,33.72
2022-11-16T04:19:41.973Z,31.92
2022-11-16T04:22:39.258Z,31.17
2022-11-16T04:25:16.319Z,32.45
2022-11-16T04:27:57.800Z,31.25
2022-11-16T04:30:25.309Z,30.02
2022-11-16T04:33:06.710Z,30.63
2022-11-16T04:35:48.452Z,31.33
2022-11-16T04:38:16.031Z,31.90
2022-11-16T04:40:43.512Z,32.60
2022-11-16T04:43:13.395Z,33.97
2022-11-16T04:46:02.754Z,33.42
2022-11-16T04:48:38.222Z,32.22
2022-11-16T04:51:05.952Z,30.38
2022-11-16T04:53:34.189Z,30.90
2022-11-16T04:56:09.433Z,33.38
2022-11-16T04:58:37.937Z,29.13
2022-11-16T05:01:05.833Z,32.95
2022-11-16T05:03:33.632Z,31.33
2022-11-16T05:06:03.188Z,33.05
2022-11-16T05:08:31.018Z,31.08
2022-11-16T05:11:00.254Z,31.25
2022-11-16T05:13:27.790Z,34.08
2022-11-16T05:15:55.473Z,33.28
2022-11-16T05:18:23.487Z,32.47
2022-11-16T05:21:00.643Z,31.33
2022-11-16T05:23:44.853Z,31.77
2022-11-16T05:26:15.359Z,27.85
2022-11-16T05:28:42.717Z,29.02
2022-11-16T05:31:12.474Z,30.52
2022-11-16T05:33:39.868Z,31.75
2022-11-16T05:36:08.712Z,30.52
2022-11-16T05:38:36.987Z,28.45
2022-11-16T05:41:06.036Z,33.95
2022-11-16T05:43:33.663Z,34.33
2022-11-16T05:46:15.084Z,33.95
2022-11-16T05:48:42.530Z,31.75
2022-11-16T05:51:10.519Z,33.22
2022-11-16T05:53:38.905Z,32.60
2022-11-16T05:56:07.403Z,33.63
2022-11-16T05:58:38.328Z,31.92
2022-11-16T06:01:06.649Z,33.70
2022-11-16T06:03:36.349Z,32.55
2022-11-16T06:06:05.128Z,31.55
2022-11-16T06:08:32.916Z,30.75
2022-11-16T06:11:05.208Z,30.95
2022-11-16T06:13:34.442Z,32.08
2022-11-16T06:16:02.418Z,36.45
2022-11-16T06:18:31.732Z,32.13
2022-11-16T06:20:59.559Z,33.15
2022-11-16T06:23:27.050Z,33.40
2022-11-16T06:25:55.671Z,33.67
2022-11-16T06:28:25.672Z,32.72
2022-11-16T06:30:53.178Z,34.38
2022-11-16T06:33:21.851Z,34.45
2022-11-16T06:35:50.564Z,36.63
2022-11-16T06:38:23.485Z,31.15
2022-11-16T06:40:54.392Z,34.78
2022-11-16T06:43:23.897Z,48.05
2022-11-16T06:45:52.892Z,31.30
2022-11-16T06:48:20.363Z,32.35
2022-11-16T06:50:48.886Z,37.83
2022-11-16T06:53:18.905Z,32.22
2022-11-16T06:55:48.596Z,34.22
2022-11-16T06:58:16.306Z,34.60
2022-11-16T07:00:45.441Z,28.85
2022-11-16T07:03:14.219Z,32.15
2022-11-16T07:05:44.792Z,36.67
2022-11-16T07:08:15.522Z,33.80
2022-11-16T07:10:43.370Z,35.08
2022-11-16T07:13:10.587Z,33.15
2022-11-16T07:15:40.176Z,31.92
2022-11-16T07:18:09.250Z,33.55
2022-11-16T07:20:39.880Z,31.70
2022-11-16T07:23:12.881Z,31.08
2022-11-16T07:25:46.944Z,30.67
2022-11-16T07:28:17.242Z,30.70
2022-11-16T07:30:44.912Z,31.60
2022-11-16T07:33:17.544Z,31.50
2022-11-16T07:36:12.042Z,31.23
2022-11-16T07:38:40.072Z,32.47
2022-11-16T07:41:11.078Z,33.00
2022-11-16T07:43:51.503Z,30.85
2022-11-16T07:49:15.306Z,33.13
2022-11-16T07:51:49.464Z,30.15
2022-11-16T07:54:33.835Z,32.22
2022-11-16T07:57:01.673Z,32.05
2022-11-16T07:59:29.333Z,30.73
2022-11-16T08:01:57.215Z,29.55
2022-11-16T08:04:24.872Z,28.65
2022-11-16T08:06:52.679Z,31.20
2022-11-16T08:09:21.419Z,32.78
2022-11-16T08:11:51.755Z,29.50
2022-11-16T08:14:19.725Z,30.25
2022-11-16T08:16:49.519Z,33.58
2022-11-16T08:19:17.965Z,31.35
2022-11-16T08:21:45.840Z,31.20
2022-11-16T08:24:14.906Z,31.38
2022-11-16T08:26:44.214Z,29.63
2022-11-16T08:29:15.233Z,32.00
2022-11-16T08:31:48.391Z,33.63
2022-11-16T08:34:19.705Z,28.50
2022-11-16T08:36:51.068Z,33.53
2022-11-16T08:39:21.755Z,33.35
2022-11-16T08:41:50.923Z,34.45
2022-11-16T08:44:18.378Z,38.97
2022-11-16T08:46:50.330Z,33.40
2022-11-16T08:49:31.658Z,33.08
2022-11-16T08:51:59.708Z,33.08
2022-11-16T08:54:29.052Z,30.55
2022-11-16T08:56:56.979Z,34.30
2022-11-16T08:59:24.369Z,32.75
2022-11-16T09:01:55.173Z,30.60
2022-11-16T09:04:23.604Z,33.42
2022-11-16T09:06:53.028Z,35.70
2022-11-16T09:09:20.705Z,29.20
2022-11-16T09:11:49.350Z,35.50
2022-11-16T09:14:16.790Z,28.70
2022-11-16T09:16:44.356Z,29.83
2022-11-16T09:19:11.689Z,29.83
2022-11-16T09:21:39.147Z,30.35
2022-11-16T09:24:06.743Z,28.40
2022-11-16T09:26:34.757Z,33.88
2022-11-16T09:29:04.385Z,29.27
2022-11-16T09:31:32.963Z,29.65
2022-11-16T09:34:00.573Z,31.65
2022-11-16T09:36:28.931Z,26.55
2022-11-16T09:39:25.950Z,27.33
2022-11-16T09:42:08.519Z,28.88
2022-11-16T09:44:56.276Z,28.85
2022-11-16T09:47:50.601Z,28.30
2022-11-16T09:50:29.966Z,25.95
2022-11-16T09:53:00.274Z,24.65
2022-11-16T09:55:43.542Z,27.02
2022-11-16T09:58:18.132Z,30.25
2022-11-16T10:00:48.903Z,29.48
2022-11-16T10:03:16.452Z,33.30
2022-11-16T10:06:08.224Z,27.80
2022-11-16T10:08:45.787Z,31.45
2022-11-16T10:11:40.952Z,24.35
2022-11-16T10:14:22.358Z,29.00
2022-11-16T10:16:52.290Z,27.92
2022-11-16T10:19:30.134Z,28.35
2022-11-16T10:22:14.825Z,30.35
2022-11-16T10:24:57.858Z,29.08
2022-11-16T10:27:32.917Z,26.13
2022-11-16T10:30:18.253Z,23.83
2022-11-16T10:33:08.175Z,28.13
2022-11-16T10:35:42.965Z,25.40
2022-11-16T10:38:17.472Z,26.52
2022-11-16T10:40:46.873Z,27.75
2022-11-16T10:43:16.133Z,26.63
2022-11-16T10:46:04.742Z,23.85
2022-11-16T10:48:39.712Z,24.63
2022-11-16T10:51:08.673Z,20.58
2022-11-16T10:53:40.691Z,21.70
2022-11-16T10:56:22.846Z,23.02
2022-11-16T10:58:52.272Z,23.48
2022-11-16T11:01:33.978Z,24.73
2022-11-16T11:04:15.325Z,24.98
2022-11-16T11:06:43.259Z,22.92
2022-11-16T11:09:30.957Z,23.88
2022-11-16T11:12:25.856Z,22.73
2022-11-16T11:15:25.829Z,24.92
2022-11-16T11:18:22.187Z,19.70
2022-11-16T11:21:10.726Z,20.63
2022-11-16T11:23:51.596Z,21.58
2022-11-16T11:26:36.142Z,21.48
2022-11-16T11:29:29.733Z,22.10
2022-11-16T11:32:05.456Z,22.15
2022-11-16T11:34:43.983Z,19.92
2022-11-16T11:37:17.362Z,22.45
2022-11-16T11:39:45.189Z,21.00
2022-11-16T11:42:15.781Z,21.60
2022-11-16T11:50:34.001Z,22.63
2022-11-16T11:53:10.819Z,20.30
2022-11-16T11:55:39.329Z,20.70
2022-11-16T11:58:06.652Z,21.98
2022-11-16T12:00:52.613Z,20.35
2022-11-16T12:03:35.255Z,18.63
2022-11-16T12:06:09.356Z,20.08
2022-11-16T12:09:05.487Z,22.33
2022-11-16T12:11:52.927Z,17.83
2022-11-16T12:14:33.784Z,21.27
2022-11-16T12:17:09.767Z,20.48
2022-11-16T12:19:45.997Z,19.63
2022-11-16T12:22:23.758Z,19.10
2022-11-16T12:25:14.904Z,20.48
2022-11-16T12:28:22.468Z,22.40
2022-11-16T12:31:17.585Z,19.67
2022-11-16T12:34:02.390Z,18.60
2022-11-16T12:36:53.955Z,17.83
2022-11-16T12:39:27.300Z,19.60
2022-11-16T12:42:01.378Z,17.88
2022-11-16T12:44:32.180Z,18.27
2022-11-16T12:47:25.907Z,17.15
2022-11-16T12:50:13.058Z,21.10
2022-11-16T12:52:47.841Z,17.60
2022-11-16T12:55:28.607Z,19.77
2022-11-16T12:58:05.293Z,18.50
2022-11-16T13:00:44.187Z,19.00
2022-11-16T13:03:21.634Z,18.08
2022-11-16T13:06:00.610Z,19.08
2022-11-16T13:08:47.100Z,18.00
2022-11-16T13:11:22.321Z,17.48
2022-11-16T13:13:53.621Z,17.92
2022-11-16T13:16:22.892Z,18.52
2022-11-16T13:18:50.616Z,18.77
2022-11-16T13:21:27.128Z,17.55
2022-11-16T13:24:00.471Z,16.08
2022-11-16T13:26:36.011Z,18.08
2022-11-16T13:29:22.752Z,18.88
2022-11-16T13:32:14.934Z,16.75
2022-11-16T13:34:42.642Z,17.77
2022-11-16T13:37:38.110Z,16.60
2022-11-16T13:40:05.680Z,18.27
2022-11-16T13:42:43.078Z,16.40
2022-11-16T13:45:19.206Z,20.00
2022-11-16T13:47:53.455Z,17.80
2022-11-16T13:50:38.128Z,17.00
2022-11-16T13:54:10.867Z,19.67
2022-11-16T13:56:04.203Z,16.45
2022-11-16T13:58:32.852Z,17.33
2022-11-16T14:01:10.995Z,18.60
2022-11-16T14:03:39.856Z,18.10
2022-11-16T14:06:29.935Z,19.73
2022-11-16T14:08:58.027Z,18.95
2022-11-16T14:11:37.809Z,19.92
2022-11-16T14:14:13.533Z,18.10
2022-11-16T14:16:43.633Z,17.98
2022-11-16T14:19:39.041Z,15.70
2022-11-16T14:22:08.367Z,17.50
2022-11-16T14:24:52.346Z,16.27
2022-11-16T14:27:31.069Z,18.67
2022-11-16T14:30:19.881Z,20.27
2022-11-16T14:32:48.397Z,22.13
2022-11-16T14:35:37.353Z,22.30
2022-11-16T14:38:15.880Z,22.20
2022-11-16T14:40:48.763Z,20.90
2022-11-16T14:43:40.836Z,22.10
2022-11-16T14:46:14.016Z,22.50
2022-11-16T14:48:45.649Z,21.35
2022-11-16T14:51:21.104Z,19.45
2022-11-16T14:54:14.187Z,20.08
2022-11-16T14:57:02.482Z,21.98
2022-11-16T14:59:30.584Z,20.38
2022-11-16T15:02:00.429Z,15.90
2022-11-16T15:04:28.177Z,19.38
2022-11-16T15:06:58.900Z,13.55
2022-11-16T15:09:27.497Z,21.55
2022-11-16T15:12:09.331Z,14.23
2022-11-16T15:14:53.022Z,20.88
2022-11-16T15:17:23.669Z,17.75
2022-11-16T15:19:59.834Z,16.27
2022-11-16T15:22:29.616Z,16.60
2022-11-16T15:25:01.048Z,18.23
2022-11-16T15:27:35.665Z,14.20
2022-11-16T15:30:05.348Z,17.98
2022-11-16T15:32:38.171Z,17.23
2022-11-16T15:35:06.225Z,15.55
2022-11-16T15:37:34.828Z,14.85
2022-11-16T15:40:03.698Z,16.73
2022-11-16T15:42:31.306Z,16.83
2022-11-16T15:45:14.378Z,18.45
2022-11-16T15:47:46.595Z,16.10
2022-11-16T15:50:17.315Z,17.48
2022-11-16T15:59:16.963Z,18.60
2022-11-16T16:01:44.935Z,15.23
2022-11-16T16:04:16.835Z,15.30
2022-11-16T16:06:47.485Z,17.58
2022-11-16T16:09:21.057Z,13.27
2022-11-16T16:11:48.804Z,13.35
2022-11-16T16:14:42.480Z,17.10
2022-11-16T16:17:11.533Z,19.33
2022-11-16T16:19:46.796Z,14.98
2022-11-16T16:22:28.130Z,16.60
2022-11-16T16:24:57.311Z,14.45
2022-11-16T16:27:26.496Z,14.32
2022-11-16T16:29:55.244Z,14.52
2022-11-16T16:32:35.504Z,14.43
2022-11-16T16:35:04.877Z,19.95
2022-11-16T16:37:33.240Z,13.80
2022-11-16T16:40:00.622Z,16.35
2022-11-16T16:42:28.222Z,15.07
2022-11-16T16:44:55.527Z,14.00
2022-11-16T16:47:23.506Z,15.90
2022-11-16T16:49:51.060Z,14.75
2022-11-16T16:52:18.699Z,14.30
2022-11-16T16:54:46.175Z,12.60
2022-11-16T16:57:17.987Z,14.05
2022-11-16T16:59:45.783Z,12.85
2022-11-16T17:02:13.633Z,13.65
2022-11-16T17:04:41.568Z,13.93
2022-11-16T17:07:09.851Z,17.52
2022-11-16T17:09:37.540Z,12.20
2022-11-16T17:12:05.609Z,13.68
2022-11-16T17:14:33.089Z,15.27
2022-11-16T17:17:00.983Z,13.32
2022-11-16T17:19:29.321Z,14.90
2022-11-16T17:21:56.977Z,11.63
2022-11-16T17:24:24.418Z,12.70
2022-11-16T17:26:52.297Z,14.68
2022-11-16T17:29:19.652Z,13.52
2022-11-16T17:31:47.818Z,14.55
2022-11-16T17:34:15.150Z,13.23
2022-11-16T17:36:43.631Z,13.20
2022-11-16T17:39:11.097Z,14.75
2022-11-16T17:41:39.035Z,11.10
2022-11-16T17:44:07.372Z,14.52
2022-11-16T17:46:35.303Z,12.73
2022-11-16T17:49:02.995Z,11.70
2022-11-16T17:51:30.918Z,13.38
2022-11-16T17:53:58.612Z,12.15
2022-11-16T17:56:26.949Z,11.73
2022-11-16T17:59:00.777Z,14.48
2022-11-16T18:01:29.830Z,13.30
2022-11-16T18:04:00.118Z,11.93
2022-11-16T18:06:28.308Z,15.00
2022-11-16T18:08:56.827Z,12.48
2022-11-16T18:11:25.937Z,12.20
2022-11-16T18:13:58.215Z,17.77
2022-11-16T18:16:27.712Z,13.68
2022-11-16T18:18:57.545Z,13.35
2022-11-16T18:21:25.848Z,12.95
2022-11-16T18:23:53.708Z,12.80
2022-11-16T18:26:23.368Z,10.73
2022-11-16T18:28:51.581Z,17.60
2022-11-16T18:31:21.131Z,13.65
2022-11-16T18:33:51.604Z,11.20
2022-11-16T18:36:20.460Z,13.15
2022-11-16T18:38:48.091Z,12.73
2022-11-16T18:41:20.411Z,11.88
2022-11-16T18:43:54.662Z,10.20
2022-11-16T18:46:27.702Z,13.70
2022-11-16T18:48:55.866Z,13.30
2022-11-16T18:51:24.032Z,15.43
2022-11-16T18:53:51.577Z,15.02
2022-11-16T18:56:19.666Z,13.30
2022-11-16T18:58:51.995Z,12.45
2022-11-16T19:01:22.358Z,13.05
2022-11-16T19:03:50.544Z,14.05
2022-11-16T19:06:18.604Z,14.93
2022-11-16T19:08:50.490Z,17.85
2022-11-16T19:11:21.875Z,18.35
2022-11-16T19:13:53.060Z,15.30
2022-11-16T19:16:20.680Z,14.85
2022-11-16T19:18:48.116Z,13.02
2022-11-16T19:21:18.788Z,11.90
2022-11-16T19:23:48.516Z,16.85
2022-11-16T19:26:17.152Z,17.23
2022-11-16T19:28:46.173Z,14.75
2022-11-16T19:31:19.858Z,14.10
2022-11-16T19:33:47.361Z,12.55
2022-11-16T19:36:17.162Z,12.57
2022-11-16T19:38:45.402Z,14.93
2022-11-16T19:41:14.395Z,17.23
2022-11-16T19:43:42.057Z,12.85
2022-11-16T19:46:11.412Z,10.57
2022-11-16T19:48:39.062Z,10.38
2022-11-16T19:51:15.079Z,11.73
2022-11-16T19:53:42.821Z,11.50
2022-11-16T19:56:11.381Z,11.30
2022-11-16T19:58:39.882Z,10.57
2022-11-16T20:01:20.902Z,10.55
2022-11-16T20:03:49.235Z,11.73
2022-11-16T20:06:21.330Z,13.57
2022-11-16T20:08:50.930Z,12.18
2022-11-16T20:11:28.626Z,10.90
2022-11-16T20:13:56.693Z,8.93
2022-11-16T20:16:31.606Z,10.63
2022-11-16T20:19:01.635Z,8.95
2022-11-16T20:21:33.169Z,11.38
2022-11-16T20:24:06.146Z,11.82
2022-11-16T20:26:35.051Z,10.00
2022-11-16T20:29:02.720Z,9.43
2022-11-16T20:31:31.198Z,8.40
2022-11-16T20:34:03.723Z,7.65
2022-11-16T20:36:32.053Z,8.45
2022-11-16T20:38:59.993Z,8.13
2022-11-16T20:41:31.141Z,11.38
2022-11-16T20:43:59.329Z,10.23
2022-11-16T20:46:33.133Z,7.60
2022-11-16T20:49:01.852Z,7.22
2022-11-16T20:51:33.114Z,9.25
2022-11-16T20:54:00.977Z,7.63
2022-11-16T20:56:28.577Z,11.13
2022-11-16T20:58:56.999Z,7.60
2022-11-16T21:01:34.188Z,8.32
2022-11-16T21:06:38.230Z,7.20
2022-11-16T21:09:06.188Z,7.50
2022-11-16T21:11:53.960Z,5.97
2022-11-16T21:14:22.122Z,7.40
2022-11-16T21:16:49.908Z,8.80
2022-11-16T21:19:17.545Z,7.50
2022-11-16T21:21:45.118Z,7.45
2022-11-16T21:24:12.747Z,8.30
2022-11-16T21:26:40.245Z,7.28
2022-11-16T21:29:07.794Z,6.97
2022-11-16T21:31:36.556Z,6.63
2022-11-16T21:34:07.542Z,7.45
2022-11-16T21:36:36.224Z,6.45
2022-11-16T21:39:03.612Z,5.47
2022-11-16T21:41:32.030Z,6.60
2022-11-16T21:43:59.544Z,6.65
2022-11-16T21:46:27.199Z,4.70
2022-11-16T21:48:56.447Z,5.90
2022-11-16T21:51:26.062Z,6.60
2022-11-16T21:53:53.531Z,6.07
2022-11-16T21:56:24.389Z,11.98
2022-11-16T21:58:53.184Z,6.53
2022-11-16T22:01:21.666Z,6.13
2022-11-16T22:04:09.074Z,6.70
2022-11-16T22:06:50.677Z,4.65
2022-11-16T22:09:18.030Z,4.55
2022-11-16T22:15:05.850Z,6.45
2022-11-16T22:17:33.738Z,5.10
2022-11-16T22:20:01.352Z,5.05
2022-11-16T22:22:29.165Z,4.45
2022-11-16T22:24:56.829Z,4.35
2022-11-16T22:27:24.834Z,7.32
2022-11-16T22:29:52.457Z,5.20
2022-11-16T22:32:20.945Z,5.03
2022-11-16T22:34:49.362Z,4.43
2022-11-16T22:37:17.458Z,5.20
2022-11-16T22:39:45.049Z,4.63
2022-11-16T22:42:12.923Z,5.47
2022-11-16T22:44:40.535Z,5.13
2022-11-16T22:47:09.847Z,5.18
2022-11-16T22:49:37.411Z,5.28
2022-11-16T22:52:05.405Z,5.18
2022-11-16T22:54:34.345Z,5.13
2022-11-16T22:57:02.255Z,5.05
2022-11-16T22:59:29.858Z,4.63
2022-11-16T23:01:57.599Z,4.47
2022-11-16T23:04:25.295Z,3.95
2022-11-16T23:06:53.199Z,4.03
2022-11-16T23:09:21.106Z,5.10
2022-11-16T23:12:02.766Z,3.80
2022-11-16T23:14:45.197Z,4.15
2022-11-16T23:17:13.197Z,4.50
2022-11-16T23:19:54.789Z,6.57
2022-11-16T23:22:36.498Z,4.47
2022-11-16T23:25:18.904Z,5.15
2022-11-16T23:27:52.974Z,4.15
2022-11-16T23:30:20.908Z,6.80
2022-11-16T23:32:48.959Z,3.40
2022-11-16T23:35:16.907Z,3.80
2022-11-16T23:37:55.380Z,5.75
2022-11-16T23:40:24.656Z,5.78
2022-11-16T23:43:07.175Z,4.00
2022-11-16T23:45:34.809Z,6.60
2022-11-16T23:48:02.763Z,4.40
2022-11-16T23:50:30.309Z,5.00
2022-11-16T23:52:58.245Z,6.15
2022-11-16T23:55:26.975Z,6.50
2022-11-16T23:57:55.179Z,4.18
